sensor_id;sensor_type;location;lat;lon;timestamp;pressure;altitude;pressure_sealevel;temperature;humidity
9235;BME280;4652;42.716;23.218;2023-03-22T00:00:07;94493.81;;;10.06;100.00
9235;BME280;4652;42.716;23.218;2023-03-22T00:06:52;94495.50;;;10.02;100.00
9235;BME280;4652;42.716;23.218;2023-03-22T00:13:35;94503.19;;;10.09;100.00
9235;BME280;4652;42.716;23.218;2023-03-22T00:20:17;94481.03;;;9.98;100.00
9235;BME280;4652;42.716;23.218;2023-03-22T00:27:03;94495.59;;;10.16;100.00
9235;BME280;4652;42.716;23.218;2023-03-22T00:33:46;94475.28;;;10.04;100.00
9235;BME280;4652;42.716;23.218;2023-03-22T00:40:28;94481.16;;;10.07;100.00
9235;BME280;4652;42.716;23.218;2023-03-22T00:47:10;94488.66;;;10.10;100.00
9235;BME280;4652;42.716;23.218;2023-03-22T00:53:54;94474.94;;;9.92;100.00
9235;BME280;4652;42.716;23.218;2023-03-22T01:00:36;94436.69;;;9.63;100.00
9235;BME280;4652;42.716;23.218;2023-03-22T01:07:18;94470.84;;;9.95;100.00
9235;BME280;4652;42.716;23.218;2023-03-22T01:14:02;94469.69;;;10.01;100.00
9235;BME280;4652;42.716;23.218;2023-03-22T01:20:44;94476.47;;;9.98;100.00
9235;BME280;4652;42.716;23.218;2023-03-22T01:27:26;94453.25;;;10.02;100.00
9235;BME280;4652;42.716;23.218;2023-03-22T01:34:09;94440.47;;;9.94;100.00
9235;BME280;4652;42.716;23.218;2023-03-22T01:40:51;94462.31;;;9.74;100.00
9235;BME280;4652;42.716;23.218;2023-03-22T01:47:33;94440.09;;;9.50;100.00
9235;BME280;4652;42.716;23.218;2023-03-22T01:54:20;94403.56;;;9.12;100.00
9235;BME280;4652;42.716;23.218;2023-03-22T02:08:06;94465.16;;;9.27;100.00
9235;BME280;4652;42.716;23.218;2023-03-22T08:45:14;94655.66;;;10.88;100.00
9235;BME280;4652;42.716;23.218;2023-03-22T08:51:56;94673.88;;;11.09;100.00
9235;BME280;4652;42.716;23.218;2023-03-22T08:58:38;94664.22;;;11.36;100.00
9235;BME280;4652;42.716;23.218;2023-03-22T09:05:23;94665.75;;;11.55;100.00
9235;BME280;4652;42.716;23.218;2023-03-22T09:12:05;94659.41;;;11.78;100.00
9235;BME280;4652;42.716;23.218;2023-03-22T09:18:47;94645.41;;;11.76;100.00
9235;BME280;4652;42.716;23.218;2023-03-22T09:25:31;94634.69;;;11.58;100.00
9235;BME280;4652;42.716;23.218;2023-03-22T09:32:13;94662.97;;;11.60;100.00
9235;BME280;4652;42.716;23.218;2023-03-22T09:38:55;94644.78;;;11.52;100.00
9235;BME280;4652;42.716;23.218;2023-03-22T09:45:41;94661.19;;;11.83;100.00
9235;BME280;4652;42.716;23.218;2023-03-22T09:52:24;94667.56;;;11.60;100.00
9235;BME280;4652;42.716;23.218;2023-03-22T09:59:12;94664.06;;;11.46;100.00
9235;BME280;4652;42.716;23.218;2023-03-22T10:06:01;94659.97;;;11.35;100.00
9235;BME280;4652;42.716;23.218;2023-03-22T10:12:50;94669.53;;;11.41;100.00
9235;BME280;4652;42.716;23.218;2023-03-22T10:19:39;94676.75;;;11.59;100.00
9235;BME280;4652;42.716;23.218;2023-03-22T10:26:28;94687.38;;;11.69;100.00
9235;BME280;4652;42.716;23.218;2023-03-22T10:33:17;94653.22;;;11.78;100.00
9235;BME280;4652;42.716;23.218;2023-03-22T10:40:04;94647.09;;;12.00;100.00
9235;BME280;4652;42.716;23.218;2023-03-22T10:46:50;94668.19;;;12.11;100.00
9235;BME280;4652;42.716;23.218;2023-03-22T10:53:36;94660.88;;;12.25;100.00
9235;BME280;4652;42.716;23.218;2023-03-22T14:25:17;94605.41;;;13.70;100.00
9235;BME280;4652;42.716;23.218;2023-03-22T14:32:02;94604.16;;;13.45;100.00
9235;BME280;4652;42.716;23.218;2023-03-22T14:38:46;94589.03;;;12.82;100.00
9235;BME280;4652;42.716;23.218;2023-03-22T14:45:32;94612.00;;;12.71;100.00
9235;BME280;4652;42.716;23.218;2023-03-22T14:52:17;94618.53;;;12.34;100.00
9235;BME280;4652;42.716;23.218;2023-03-22T14:59:00;94623.19;;;12.20;100.00
9235;BME280;4652;42.716;23.218;2023-03-22T15:05:45;94618.72;;;12.02;100.00
9235;BME280;4652;42.716;23.218;2023-03-22T15:12:28;94624.81;;;11.94;100.00
9235;BME280;4652;42.716;23.218;2023-03-22T15:19:12;94624.88;;;12.16;100.00
9235;BME280;4652;42.716;23.218;2023-03-22T15:25:57;94618.22;;;12.00;100.00
9235;BME280;4652;42.716;23.218;2023-03-22T15:32:41;94618.63;;;11.94;100.00
9235;BME280;4652;42.716;23.218;2023-03-22T15:39:24;94612.22;;;12.03;100.00
9235;BME280;4652;42.716;23.218;2023-03-22T15:46:27;94607.66;;;11.90;100.00
9235;BME280;4652;42.716;23.218;2023-03-22T15:53:26;94600.44;;;11.86;100.00
9235;BME280;4652;42.716;23.218;2023-03-22T16:00:19;94631.44;;;11.74;100.00
9235;BME280;4652;42.716;23.218;2023-03-22T16:07:04;94637.19;;;11.54;100.00
9235;BME280;4652;42.716;23.218;2023-03-22T16:13:46;94646.53;;;11.16;100.00
9235;BME280;4652;42.716;23.218;2023-03-22T16:20:28;94652.72;;;11.16;100.00
9235;BME280;4652;42.716;23.218;2023-03-22T16:27:15;94657.06;;;10.85;100.00
9235;BME280;4652;42.716;23.218;2023-03-22T16:33:58;94648.84;;;10.58;100.00
9235;BME280;4652;42.716;23.218;2023-03-22T16:40:44;94646.56;;;10.33;100.00
9235;BME280;4652;42.716;23.218;2023-03-22T16:47:28;94676.66;;;10.53;100.00
9235;BME280;4652;42.716;23.218;2023-03-22T16:54:11;94677.16;;;10.37;100.00
9235;BME280;4652;42.716;23.218;2023-03-22T17:00:53;94700.66;;;10.50;100.00
9235;BME280;4652;42.716;23.218;2023-03-22T17:07:36;94703.06;;;10.09;100.00
9235;BME280;4652;42.716;23.218;2023-03-22T17:14:18;94721.06;;;9.66;100.00
9235;BME280;4652;42.716;23.218;2023-03-22T17:21:01;94711.16;;;9.38;100.00
9235;BME280;4652;42.716;23.218;2023-03-22T17:27:44;94699.03;;;9.12;100.00
9235;BME280;4652;42.716;23.218;2023-03-22T17:34:26;94738.69;;;8.91;100.00
9235;BME280;4652;42.716;23.218;2023-03-22T17:41:10;94752.03;;;8.62;100.00
9235;BME280;4652;42.716;23.218;2023-03-22T17:47:55;94768.56;;;8.36;100.00
9235;BME280;4652;42.716;23.218;2023-03-22T17:54:37;94765.19;;;8.05;100.00
9235;BME280;4652;42.716;23.218;2023-03-22T18:01:19;94786.97;;;7.88;100.00
9235;BME280;4652;42.716;23.218;2023-03-22T18:08:04;94790.50;;;7.63;100.00
9235;BME280;4652;42.716;23.218;2023-03-22T18:14:46;94780.34;;;7.40;100.00
9235;BME280;4652;42.716;23.218;2023-03-22T18:21:29;94787.06;;;7.28;100.00
9235;BME280;4652;42.716;23.218;2023-03-22T18:48:21;94775.03;;;7.10;nan
9235;BME280;4652;42.716;23.218;2023-03-22T18:55:04;94783.63;;;7.12;nan
9235;BME280;4652;42.716;23.218;2023-03-22T19:01:46;94784.66;;;6.81;nan
9235;BME280;4652;42.716;23.218;2023-03-22T19:08:30;94807.94;;;6.80;nan
9235;BME280;4652;42.716;23.218;2023-03-22T19:15:12;94795.66;;;6.84;nan
9235;BME280;4652;42.716;23.218;2023-03-22T19:21:54;94794.22;;;6.46;nan
9235;BME280;4652;42.716;23.218;2023-03-22T19:28:37;94780.25;;;6.19;nan
9235;BME280;4652;42.716;23.218;2023-03-22T19:35:19;94780.50;;;6.13;nan
9235;BME280;4652;42.716;23.218;2023-03-22T19:42:01;94779.09;;;6.00;nan
9235;BME280;4652;42.716;23.218;2023-03-22T19:48:45;94771.09;;;6.00;nan
9235;BME280;4652;42.716;23.218;2023-03-22T19:55:27;94780.66;;;5.86;nan
9235;BME280;4652;42.716;23.218;2023-03-22T20:08:06;94792.59;;;5.73;100.00
9235;BME280;4652;42.716;23.218;2023-03-22T20:14:50;94795.91;;;5.44;100.00
9235;BME280;4652;42.716;23.218;2023-03-22T20:21:33;94771.72;;;5.23;100.00
9235;BME280;4652;42.716;23.218;2023-03-22T20:28:19;94764.66;;;5.02;100.00
9235;BME280;4652;42.716;23.218;2023-03-22T20:35:01;94798.25;;;5.03;100.00
9235;BME280;4652;42.716;23.218;2023-03-22T20:41:43;94806.03;;;5.05;100.00
9235;BME280;4652;42.716;23.218;2023-03-22T20:48:26;94747.94;;;4.53;100.00
9235;BME280;4652;42.716;23.218;2023-03-22T20:55:09;94809.97;;;4.70;100.00
9235;BME280;4652;42.716;23.218;2023-03-22T21:01:51;94800.72;;;4.78;100.00
9235;BME280;4652;42.716;23.218;2023-03-22T21:08:36;94813.47;;;4.71;100.00
9235;BME280;4652;42.716;23.218;2023-03-22T21:15:18;94806.88;;;4.84;100.00
9235;BME280;4652;42.716;23.218;2023-03-22T21:22:00;94791.81;;;4.67;100.00
9235;BME280;4652;42.716;23.218;2023-03-22T21:28:44;94818.63;;;4.56;100.00
9235;BME280;4652;42.716;23.218;2023-03-22T21:35:26;94830.19;;;4.40;100.00
9235;BME280;4652;42.716;23.218;2023-03-22T21:42:08;94821.47;;;4.23;100.00
9235;BME280;4652;42.716;23.218;2023-03-22T21:48:51;94830.00;;;4.46;100.00
9235;BME280;4652;42.716;23.218;2023-03-22T21:55:38;94832.84;;;4.40;100.00
9235;BME280;4652;42.716;23.218;2023-03-22T22:02:22;94820.66;;;4.44;100.00
9235;BME280;4652;42.716;23.218;2023-03-22T22:09:07;94819.66;;;4.50;100.00
9235;BME280;4652;42.716;23.218;2023-03-22T22:15:53;94811.34;;;4.46;100.00
9235;BME280;4652;42.716;23.218;2023-03-22T22:22:35;94808.09;;;4.18;100.00
9235;BME280;4652;42.716;23.218;2023-03-22T22:29:19;94823.47;;;4.10;100.00
9235;BME280;4652;42.716;23.218;2023-03-22T22:36:01;94832.63;;;3.98;100.00
9235;BME280;4652;42.716;23.218;2023-03-22T22:42:44;94836.00;;;3.88;100.00
9235;BME280;4652;42.716;23.218;2023-03-22T22:49:29;94827.09;;;3.61;100.00
9235;BME280;4652;42.716;23.218;2023-03-22T22:56:13;94841.94;;;3.57;100.00
9235;BME280;4652;42.716;23.218;2023-03-22T23:02:56;94841.88;;;3.52;100.00
9235;BME280;4652;42.716;23.218;2023-03-22T23:09:40;94833.09;;;3.35;100.00
9235;BME280;4652;42.716;23.218;2023-03-22T23:16:25;94824.25;;;3.13;100.00
9235;BME280;4652;42.716;23.218;2023-03-22T23:23:07;94848.53;;;3.33;100.00
9235;BME280;4652;42.716;23.218;2023-03-22T23:29:51;94825.38;;;3.33;100.00
9235;BME280;4652;42.716;23.218;2023-03-22T23:36:32;94844.91;;;3.39;100.00
9235;BME280;4652;42.716;23.218;2023-03-22T23:43:14;94810.13;;;3.29;100.00
9235;BME280;4652;42.716;23.218;2023-03-22T23:49:58;94837.47;;;3.41;100.00
9235;BME280;4652;42.716;23.218;2023-03-22T23:56:40;94839.00;;;3.37;100.00
